sensor_id;sensor_type;location;lat;lon;timestamp;pressure;altitude;pressure_sealevel;temperature;humidity
79671;BME280;69137;50.878;8.050;2023-07-31T00:00:23;98048.91;;;14.77;89.55
79671;BME280;69137;50.878;8.050;2023-07-31T00:02:49;98048.63;;;14.79;89.65
79671;BME280;69137;50.878;8.050;2023-07-31T00:05:15;98049.72;;;14.78;89.78
79671;BME280;69137;50.878;8.050;2023-07-31T00:07:41;98043.59;;;14.81;90.45
79671;BME280;69137;50.878;8.050;2023-07-31T00:10:06;98042.41;;;14.87;88.63
79671;BME280;69137;50.878;8.050;2023-07-31T00:12:32;98040.19;;;14.89;89.50
79671;BME280;69137;50.878;8.050;2023-07-31T00:14:58;98031.41;;;14.87;88.85
79671;BME280;69137;50.878;8.050;2023-07-31T00:17:23;98022.22;;;14.78;89.44
79671;BME280;69137;50.878;8.050;2023-07-31T00:19:49;98039.25;;;14.80;89.48
79671;BME280;69137;50.878;8.050;2023-07-31T00:22:16;98033.44;;;14.81;89.58
79671;BME280;69137;50.878;8.050;2023-07-31T00:24:41;98024.06;;;14.82;89.42
79671;BME280;69137;50.878;8.050;2023-07-31T00:27:06;98021.50;;;14.86;89.22
79671;BME280;69137;50.878;8.050;2023-07-31T00:29:32;98013.88;;;14.83;89.32
79671;BME280;69137;50.878;8.050;2023-07-31T00:31:57;98010.13;;;14.79;89.41
79671;BME280;69137;50.878;8.050;2023-07-31T00:34:23;98009.63;;;14.91;89.17
79671;BME280;69137;50.878;8.050;2023-07-31T00:36:48;98019.09;;;14.98;88.77
79671;BME280;69137;50.878;8.050;2023-07-31T00:39:13;98011.03;;;15.02;89.03
79671;BME280;69137;50.878;8.050;2023-07-31T00:41:39;98013.19;;;14.91;89.22
79671;BME280;69137;50.878;8.050;2023-07-31T00:44:04;98005.84;;;14.87;88.80
79671;BME280;69137;50.878;8.050;2023-07-31T00:46:30;97998.22;;;14.97;87.61
79671;BME280;69137;50.878;8.050;2023-07-31T00:48:56;97997.41;;;14.97;88.97
79671;BME280;69137;50.878;8.050;2023-07-31T00:51:22;97991.59;;;14.98;89.03
79671;BME280;69137;50.878;8.050;2023-07-31T00:53:47;97991.91;;;14.97;88.79
79671;BME280;69137;50.878;8.050;2023-07-31T00:56:13;97994.66;;;14.97;89.23
79671;BME280;69137;50.878;8.050;2023-07-31T00:58:39;97994.25;;;15.03;89.61
79671;BME280;69137;50.878;8.050;2023-07-31T01:01:05;97995.56;;;15.06;88.56
79671;BME280;69137;50.878;8.050;2023-07-31T01:03:30;97998.22;;;14.97;89.41
79671;BME280;69137;50.878;8.050;2023-07-31T01:09:03;97998.50;;;14.96;89.69
79671;BME280;69137;50.878;8.050;2023-07-31T01:11:46;97988.41;;;14.91;88.88
79671;BME280;69137;50.878;8.050;2023-07-31T01:14:15;97997.41;;;14.97;88.73
79671;BME280;69137;50.878;8.050;2023-07-31T01:16:40;97995.16;;;14.99;89.78
79671;BME280;69137;50.878;8.050;2023-07-31T01:19:08;97992.31;;;15.04;89.10
79671;BME280;69137;50.878;8.050;2023-07-31T01:24:15;97991.19;;;15.05;88.85
79671;BME280;69137;50.878;8.050;2023-07-31T01:26:49;97981.53;;;15.07;88.26
79671;BME280;69137;50.878;8.050;2023-07-31T01:29:49;97986.81;;;15.04;88.78
79671;BME280;69137;50.878;8.050;2023-07-31T01:32:19;97989.16;;;15.11;88.40
79671;BME280;69137;50.878;8.050;2023-07-31T01:34:45;97985.09;;;15.08;88.99
79671;BME280;69137;50.878;8.050;2023-07-31T01:37:12;97984.28;;;15.07;88.05
79671;BME280;69137;50.878;8.050;2023-07-31T01:39:37;97974.28;;;14.98;89.55
79671;BME280;69137;50.878;8.050;2023-07-31T01:42:03;97978.56;;;15.04;88.55
79671;BME280;69137;50.878;8.050;2023-07-31T01:44:28;97981.00;;;15.05;88.63
79671;BME280;69137;50.878;8.050;2023-07-31T01:46:54;97968.47;;;14.99;89.16
79671;BME280;69137;50.878;8.050;2023-07-31T01:49:19;97977.75;;;15.03;89.03
79671;BME280;69137;50.878;8.050;2023-07-31T01:51:45;97968.56;;;15.08;88.63
79671;BME280;69137;50.878;8.050;2023-07-31T01:54:10;97973.75;;;15.10;88.37
79671;BME280;69137;50.878;8.050;2023-07-31T01:56:36;97975.91;;;15.13;89.01
79671;BME280;69137;50.878;8.050;2023-07-31T01:59:01;97982.63;;;15.06;88.96
79671;BME280;69137;50.878;8.050;2023-07-31T02:01:27;97976.81;;;15.08;87.98
79671;BME280;69137;50.878;8.050;2023-07-31T02:03:52;97980.09;;;15.10;88.22
79671;BME280;69137;50.878;8.050;2023-07-31T02:06:19;97981.31;;;15.04;88.31
79671;BME280;69137;50.878;8.050;2023-07-31T02:08:44;97971.94;;;15.05;88.94
79671;BME280;69137;50.878;8.050;2023-07-31T02:11:10;97977.53;;;15.00;88.69
79671;BME280;69137;50.878;8.050;2023-07-31T02:13:35;97970.09;;;15.00;88.34
79671;BME280;69137;50.878;8.050;2023-07-31T02:16:00;97972.44;;;15.07;87.69
79671;BME280;69137;50.878;8.050;2023-07-31T02:18:26;97958.19;;;15.05;88.32
79671;BME280;69137;50.878;8.050;2023-07-31T02:20:52;97968.88;;;15.06;87.16
79671;BME280;69137;50.878;8.050;2023-07-31T02:23:18;97957.06;;;15.06;86.85
79671;BME280;69137;50.878;8.050;2023-07-31T02:25:44;97960.44;;;15.03;87.88
79671;BME280;69137;50.878;8.050;2023-07-31T02:28:10;97958.78;;;15.02;88.26
79671;BME280;69137;50.878;8.050;2023-07-31T02:30:35;97956.88;;;15.02;87.04
79671;BME280;69137;50.878;8.050;2023-07-31T02:33:01;97956.66;;;14.99;87.21
79671;BME280;69137;50.878;8.050;2023-07-31T02:35:26;97961.84;;;15.00;87.65
79671;BME280;69137;50.878;8.050;2023-07-31T02:37:51;97960.19;;;14.99;86.56
79671;BME280;69137;50.878;8.050;2023-07-31T02:40:17;97961.22;;;15.03;86.72
79671;BME280;69137;50.878;8.050;2023-07-31T02:42:42;97956.97;;;15.11;88.35
79671;BME280;69137;50.878;8.050;2023-07-31T02:45:08;97956.97;;;15.11;87.94
79671;BME280;69137;50.878;8.050;2023-07-31T02:47:34;97951.66;;;15.01;87.70
79671;BME280;69137;50.878;8.050;2023-07-31T02:49:59;97948.28;;;15.04;87.91
79671;BME280;69137;50.878;8.050;2023-07-31T02:52:25;97959.00;;;15.05;87.46
79671;BME280;69137;50.878;8.050;2023-07-31T02:54:50;97954.72;;;15.13;87.31
79671;BME280;69137;50.878;8.050;2023-07-31T02:57:16;97953.09;;;14.98;88.89
79671;BME280;69137;50.878;8.050;2023-07-31T02:59:41;97943.41;;;15.01;88.54
79671;BME280;69137;50.878;8.050;2023-07-31T03:02:07;97957.16;;;15.01;89.16
79671;BME280;69137;50.878;8.050;2023-07-31T03:04:32;97958.38;;;14.95;88.39
79671;BME280;69137;50.878;8.050;2023-07-31T03:06:57;97956.97;;;14.97;89.70
79671;BME280;69137;50.878;8.050;2023-07-31T03:09:23;97958.69;;;14.93;89.19
79671;BME280;69137;50.878;8.050;2023-07-31T03:11:48;97958.59;;;14.98;88.51
79671;BME280;69137;50.878;8.050;2023-07-31T03:14:14;97951.25;;;14.94;89.48
79671;BME280;69137;50.878;8.050;2023-07-31T03:16:39;97947.59;;;14.98;89.50
79671;BME280;69137;50.878;8.050;2023-07-31T03:19:04;97937.50;;;14.94;90.23
79671;BME280;69137;50.878;8.050;2023-07-31T03:21:30;97939.84;;;15.00;89.71
79671;BME280;69137;50.878;8.050;2023-07-31T03:23:55;97944.63;;;15.08;89.43
79671;BME280;69137;50.878;8.050;2023-07-31T03:26:21;97939.41;;;15.07;89.77
79671;BME280;69137;50.878;8.050;2023-07-31T03:28:46;97940.75;;;14.96;90.05
79671;BME280;69137;50.878;8.050;2023-07-31T03:31:12;97938.31;;;15.08;89.26
79671;BME280;69137;50.878;8.050;2023-07-31T03:33:37;97925.28;;;15.00;89.40
79671;BME280;69137;50.878;8.050;2023-07-31T03:36:03;97927.41;;;15.03;89.71
79671;BME280;69137;50.878;8.050;2023-07-31T03:38:29;97931.28;;;15.02;88.80
79671;BME280;69137;50.878;8.050;2023-07-31T03:40:54;97921.69;;;15.13;88.54
79671;BME280;69137;50.878;8.050;2023-07-31T03:43:19;97921.69;;;15.13;89.03
79671;BME280;69137;50.878;8.050;2023-07-31T03:45:45;97925.66;;;15.07;89.25
79671;BME280;69137;50.878;8.050;2023-07-31T03:48:11;97931.88;;;14.99;89.34
79671;BME280;69137;50.878;8.050;2023-07-31T03:50:36;97928.22;;;15.03;89.01
79671;BME280;69137;50.878;8.050;2023-07-31T03:53:01;97918.13;;;14.99;89.49
79671;BME280;69137;50.878;8.050;2023-07-31T03:55:27;97913.97;;;15.01;89.57
79671;BME280;69137;50.878;8.050;2023-07-31T03:57:52;97916.31;;;15.08;89.21
79671;BME280;69137;50.878;8.050;2023-07-31T04:00:18;97923.44;;;15.09;89.27
79671;BME280;69137;50.878;8.050;2023-07-31T04:02:43;97912.13;;;15.11;88.91
79671;BME280;69137;50.878;8.050;2023-07-31T04:05:09;97909.69;;;15.09;88.78
79671;BME280;69137;50.878;8.050;2023-07-31T04:07:34;97907.44;;;15.11;89.12
79671;BME280;69137;50.878;8.050;2023-07-31T04:10:00;97906.00;;;15.14;89.08
79671;BME280;69137;50.878;8.050;2023-07-31T04:12:25;97899.88;;;15.17;89.69
79671;BME280;69137;50.878;8.050;2023-07-31T04:14:51;97902.84;;;15.20;88.69
79671;BME280;69137;50.878;8.050;2023-07-31T04:17:19;97897.75;;;15.14;88.58
79671;BME280;69137;50.878;8.050;2023-07-31T04:19:45;97893.28;;;15.04;89.74
79671;BME280;69137;50.878;8.050;2023-07-31T04:22:10;97891.22;;;15.10;88.74
79671;BME280;69137;50.878;8.050;2023-07-31T04:24:35;97901.41;;;15.09;89.26
79671;BME280;69137;50.878;8.050;2023-07-31T04:27:01;97904.56;;;15.16;89.52
79671;BME280;69137;50.878;8.050;2023-07-31T04:29:26;97900.31;;;15.10;89.45
79671;BME280;69137;50.878;8.050;2023-07-31T04:31:52;97906.13;;;15.08;89.67
79671;BME280;69137;50.878;8.050;2023-07-31T04:34:17;97906.63;;;15.11;89.32
79671;BME280;69137;50.878;8.050;2023-07-31T04:36:42;97908.75;;;15.14;89.08
79671;BME280;69137;50.878;8.050;2023-07-31T04:39:08;97899.47;;;15.10;88.75
79671;BME280;69137;50.878;8.050;2023-07-31T04:41:33;97895.09;;;15.08;89.24
79671;BME280;69137;50.878;8.050;2023-07-31T04:43:59;97902.16;;;15.01;89.78
79671;BME280;69137;50.878;8.050;2023-07-31T04:46:24;97893.38;;;14.99;88.61
79671;BME280;69137;50.878;8.050;2023-07-31T04:48:50;97898.88;;;15.13;88.99
79671;BME280;69137;50.878;8.050;2023-07-31T04:51:15;97893.69;;;15.11;88.03
79671;BME280;69137;50.878;8.050;2023-07-31T04:53:41;97895.63;;;15.11;89.03
79671;BME280;69137;50.878;8.050;2023-07-31T04:56:06;97890.13;;;15.11;89.04
79671;BME280;69137;50.878;8.050;2023-07-31T04:58:31;97890.31;;;15.14;88.54
79671;BME280;69137;50.878;8.050;2023-07-31T05:00:57;97887.97;;;15.21;87.98
79671;BME280;69137;50.878;8.050;2023-07-31T05:03:22;97886.72;;;15.27;86.66
79671;BME280;69137;50.878;8.050;2023-07-31T05:05:48;97895.66;;;15.47;86.92
79671;BME280;69137;50.878;8.050;2023-07-31T05:08:13;97894.13;;;15.41;86.72
79671;BME280;69137;50.878;8.050;2023-07-31T05:10:39;97890.19;;;15.33;87.25
79671;BME280;69137;50.878;8.050;2023-07-31T05:13:04;97894.84;;;15.33;87.23
79671;BME280;69137;50.878;8.050;2023-07-31T05:15:30;97897.19;;;15.39;87.10
79671;BME280;69137;50.878;8.050;2023-07-31T05:17:56;97898.53;;;15.42;85.16
79671;BME280;69137;50.878;8.050;2023-07-31T05:20:21;97889.53;;;15.50;85.71
79671;BME280;69137;50.878;8.050;2023-07-31T05:22:47;97885.22;;;15.58;84.90
79671;BME280;69137;50.878;8.050;2023-07-31T05:25:12;97882.84;;;15.65;84.50
79671;BME280;69137;50.878;8.050;2023-07-31T05:27:38;97881.31;;;15.59;84.84
79671;BME280;69137;50.878;8.050;2023-07-31T05:30:04;97884.28;;;15.62;84.44
79671;BME280;69137;50.878;8.050;2023-07-31T05:32:30;97888.53;;;15.68;84.01
79671;BME280;69137;50.878;8.050;2023-07-31T05:34:55;97885.91;;;15.63;84.09
79671;BME280;69137;50.878;8.050;2023-07-31T05:37:21;97887.66;;;15.59;84.15
79671;BME280;69137;50.878;8.050;2023-07-31T05:39:47;97884.81;;;15.64;83.21
79671;BME280;69137;50.878;8.050;2023-07-31T05:42:12;97882.63;;;15.75;83.23
79671;BME280;69137;50.878;8.050;2023-07-31T05:44:37;97876.13;;;15.71;83.02
79671;BME280;69137;50.878;8.050;2023-07-31T05:47:03;97876.22;;;15.66;83.66
79671;BME280;69137;50.878;8.050;2023-07-31T05:49:28;97874.38;;;15.61;84.39
79671;BME280;69137;50.878;8.050;2023-07-31T05:51:54;97861.25;;;15.72;83.44
79671;BME280;69137;50.878;8.050;2023-07-31T05:54:19;97867.72;;;15.76;83.50
79671;BME280;69137;50.878;8.050;2023-07-31T05:56:45;97873.25;;;15.76;83.44
79671;BME280;69137;50.878;8.050;2023-07-31T05:59:12;97861.56;;;15.93;83.42
79671;BME280;69137;50.878;8.050;2023-07-31T06:01:38;97856.22;;;15.97;82.79
79671;BME280;69137;50.878;8.050;2023-07-31T06:04:04;97862.78;;;16.09;81.70
79671;BME280;69137;50.878;8.050;2023-07-31T06:06:29;97862.00;;;16.17;81.78
79671;BME280;69137;50.878;8.050;2023-07-31T06:08:55;97856.50;;;16.17;82.55
79671;BME280;69137;50.878;8.050;2023-07-31T06:11:21;97855.22;;;16.24;81.53
79671;BME280;69137;50.878;8.050;2023-07-31T06:13:46;97855.72;;;16.26;81.95
79671;BME280;69137;50.878;8.050;2023-07-31T06:16:13;97860.59;;;16.29;81.46
79671;BME280;69137;50.878;8.050;2023-07-31T06:18:39;97855.03;;;16.11;82.31
79671;BME280;69137;50.878;8.050;2023-07-31T06:21:05;97846.34;;;16.27;80.98
79671;BME280;69137;50.878;8.050;2023-07-31T06:23:30;97843.91;;;16.25;81.85
79671;BME280;69137;50.878;8.050;2023-07-31T06:25:56;97836.44;;;16.26;81.69
79671;BME280;69137;50.878;8.050;2023-07-31T06:28:23;97837.44;;;16.30;82.18
79671;BME280;69137;50.878;8.050;2023-07-31T06:30:52;97837.50;;;16.47;81.62
79671;BME280;69137;50.878;8.050;2023-07-31T06:33:17;97829.56;;;16.46;81.89
79671;BME280;69137;50.878;8.050;2023-07-31T06:35:43;97826.66;;;16.51;81.18
79671;BME280;69137;50.878;8.050;2023-07-31T06:38:08;97825.72;;;16.64;81.95
79671;BME280;69137;50.878;8.050;2023-07-31T06:40:34;97829.31;;;16.65;81.35
79671;BME280;69137;50.878;8.050;2023-07-31T06:42:59;97827.69;;;16.64;81.32
79671;BME280;69137;50.878;8.050;2023-07-31T06:45:31;97844.72;;;16.66;81.53
79671;BME280;69137;50.878;8.050;2023-07-31T06:47:56;97844.31;;;16.81;80.26
79671;BME280;69137;50.878;8.050;2023-07-31T06:50:26;97843.59;;;16.75;80.68
79671;BME280;69137;50.878;8.050;2023-07-31T06:52:52;97839.22;;;16.66;81.87
79671;BME280;69137;50.878;8.050;2023-07-31T06:55:21;97842.44;;;16.68;80.47
79671;BME280;69137;50.878;8.050;2023-07-31T06:57:48;97832.69;;;16.62;81.78
79671;BME280;69137;50.878;8.050;2023-07-31T07:00:33;97837.13;;;16.71;80.40
79671;BME280;69137;50.878;8.050;2023-07-31T07:02:58;97834.28;;;16.54;81.22
79671;BME280;69137;50.878;8.050;2023-07-31T07:05:36;97831.91;;;16.61;81.04
79671;BME280;69137;50.878;8.050;2023-07-31T07:08:01;97837.72;;;16.59;81.61
79671;BME280;69137;50.878;8.050;2023-07-31T07:10:27;97829.31;;;16.65;80.95
79671;BME280;69137;50.878;8.050;2023-07-31T07:12:52;97830.41;;;16.55;81.85
79671;BME280;69137;50.878;8.050;2023-07-31T07:18:57;97831.69;;;16.57;83.05
79671;BME280;69137;50.878;8.050;2023-07-31T07:21:23;97829.28;;;16.56;83.18
79671;BME280;69137;50.878;8.050;2023-07-31T07:23:48;97830.16;;;16.34;83.73
79671;BME280;69137;50.878;8.050;2023-07-31T07:26:26;97835.59;;;16.48;83.43
79671;BME280;69137;50.878;8.050;2023-07-31T07:29:00;97823.09;;;16.50;82.95
79671;BME280;69137;50.878;8.050;2023-07-31T07:31:27;97835.75;;;16.51;83.45
79671;BME280;69137;50.878;8.050;2023-07-31T07:33:53;97831.19;;;16.47;82.82
79671;BME280;69137;50.878;8.050;2023-07-31T07:36:19;97827.69;;;16.64;81.61
79671;BME280;69137;50.878;8.050;2023-07-31T07:39:00;97820.38;;;16.59;82.04
79671;BME280;69137;50.878;8.050;2023-07-31T07:41:31;97818.78;;;16.67;82.89
79671;BME280;69137;50.878;8.050;2023-07-31T07:44:22;97824.63;;;16.74;82.36
79671;BME280;69137;50.878;8.050;2023-07-31T07:47:02;97815.38;;;16.70;82.34
79671;BME280;69137;50.878;8.050;2023-07-31T07:49:28;97809.13;;;16.95;80.99
79671;BME280;69137;50.878;8.050;2023-07-31T07:51:56;97814.00;;;16.98;81.75
79671;BME280;69137;50.878;8.050;2023-07-31T07:54:22;97809.78;;;16.92;80.63
79671;BME280;69137;50.878;8.050;2023-07-31T07:57:02;97821.63;;;17.01;80.65
79671;BME280;69137;50.878;8.050;2023-07-31T07:59:28;97821.31;;;17.12;81.61
79671;BME280;69137;50.878;8.050;2023-07-31T08:01:53;97814.34;;;17.40;79.24
79671;BME280;69137;50.878;8.050;2023-07-31T08:08:18;97815.00;;;17.63;77.83
79671;BME280;69137;50.878;8.050;2023-07-31T08:10:43;97820.03;;;17.61;79.43
79671;BME280;69137;50.878;8.050;2023-07-31T08:13:11;97820.53;;;17.81;77.61
79671;BME280;69137;50.878;8.050;2023-07-31T08:15:37;97814.50;;;17.79;77.24
79671;BME280;69137;50.878;8.050;2023-07-31T08:18:02;97808.81;;;17.75;79.11
79671;BME280;69137;50.878;8.050;2023-07-31T08:20:28;97797.44;;;17.77;77.76
79671;BME280;69137;50.878;8.050;2023-07-31T08:26:49;97797.63;;;17.63;78.90
79671;BME280;69137;50.878;8.050;2023-07-31T08:29:23;97805.59;;;17.47;78.26
79671;BME280;69137;50.878;8.050;2023-07-31T08:31:49;97814.03;;;17.42;77.72
79671;BME280;69137;50.878;8.050;2023-07-31T08:34:14;97810.47;;;17.33;79.11
79671;BME280;69137;50.878;8.050;2023-07-31T08:36:40;97807.84;;;17.28;79.44
79671;BME280;69137;50.878;8.050;2023-07-31T08:39:05;97805.94;;;17.28;80.16
79671;BME280;69137;50.878;8.050;2023-07-31T08:48:31;97801.69;;;17.05;81.08
79671;BME280;69137;50.878;8.050;2023-07-31T08:51:30;97784.16;;;17.18;81.26
79671;BME280;69137;50.878;8.050;2023-07-31T08:57:17;97790.50;;;17.18;82.64
79671;BME280;69137;50.878;8.050;2023-07-31T08:59:43;97800.72;;;17.18;81.99
79671;BME280;69137;50.878;8.050;2023-07-31T09:02:09;97806.22;;;17.09;81.79
79671;BME280;69137;50.878;8.050;2023-07-31T09:04:35;97816.09;;;17.01;82.34
79671;BME280;69137;50.878;8.050;2023-07-31T09:07:12;97801.16;;;16.94;83.23
79671;BME280;69137;50.878;8.050;2023-07-31T09:09:39;97805.88;;;16.93;83.27
79671;BME280;69137;50.878;8.050;2023-07-31T09:12:08;97802.31;;;16.84;83.10
79671;BME280;69137;50.878;8.050;2023-07-31T09:14:34;97803.53;;;16.69;84.17
79671;BME280;69137;50.878;8.050;2023-07-31T09:20:38;97806.69;;;16.45;83.98
79671;BME280;69137;50.878;8.050;2023-07-31T09:23:12;97809.75;;;16.44;83.49
79671;BME280;69137;50.878;8.050;2023-07-31T09:25:53;97797.72;;;16.31;84.86
79671;BME280;69137;50.878;8.050;2023-07-31T09:28:31;97801.78;;;16.33;83.80
79671;BME280;69137;50.878;8.050;2023-07-31T09:31:11;97808.94;;;16.34;82.96
79671;BME280;69137;50.878;8.050;2023-07-31T09:33:54;97808.75;;;16.31;84.32
79671;BME280;69137;50.878;8.050;2023-07-31T09:36:45;97812.63;;;16.30;84.73
79671;BME280;69137;50.878;8.050;2023-07-31T09:39:12;97794.28;;;16.25;85.09
79671;BME280;69137;50.878;8.050;2023-07-31T09:42:03;97806.13;;;16.26;86.01
79671;BME280;69137;50.878;8.050;2023-07-31T09:44:40;97804.94;;;16.18;85.71
79671;BME280;69137;50.878;8.050;2023-07-31T09:47:06;97799.00;;;16.25;86.15
79671;BME280;69137;50.878;8.050;2023-07-31T09:49:31;97797.84;;;16.26;87.75
79671;BME280;69137;50.878;8.050;2023-07-31T09:55:40;97791.63;;;16.43;88.73
79671;BME280;69137;50.878;8.050;2023-07-31T09:58:07;97784.53;;;16.59;88.52
79671;BME280;69137;50.878;8.050;2023-07-31T10:03:55;97784.00;;;16.48;87.20
79671;BME280;69137;50.878;8.050;2023-07-31T10:06:23;97796.84;;;16.53;86.71
79671;BME280;69137;50.878;8.050;2023-07-31T10:09:11;97786.47;;;16.58;85.87
79671;BME280;69137;50.878;8.050;2023-07-31T10:11:41;97776.94;;;16.73;86.11
79671;BME280;69137;50.878;8.050;2023-07-31T10:14:09;97773.41;;;16.81;86.29
79671;BME280;69137;50.878;8.050;2023-07-31T10:16:38;97776.19;;;16.99;84.78
79671;BME280;69137;50.878;8.050;2023-07-31T10:19:29;97762.88;;;17.01;84.90
79671;BME280;69137;50.878;8.050;2023-07-31T10:21:55;97749.75;;;16.89;84.98
79671;BME280;69137;50.878;8.050;2023-07-31T10:24:51;97772.13;;;16.96;86.74
79671;BME280;69137;50.878;8.050;2023-07-31T10:27:17;97758.00;;;16.98;85.65
79671;BME280;69137;50.878;8.050;2023-07-31T10:29:43;97760.59;;;17.12;85.90
79671;BME280;69137;50.878;8.050;2023-07-31T10:32:12;97768.88;;;17.12;85.84
79671;BME280;69137;50.878;8.050;2023-07-31T10:34:40;97752.00;;;17.22;86.20
79671;BME280;69137;50.878;8.050;2023-07-31T10:40:06;97750.97;;;17.61;86.66
79671;BME280;69137;50.878;8.050;2023-07-31T10:46:14;97754.59;;;17.44;83.69
79671;BME280;69137;50.878;8.050;2023-07-31T10:51:33;97746.00;;;17.46;83.03
79671;BME280;69137;50.878;8.050;2023-07-31T10:57:22;97732.16;;;17.63;82.29
79671;BME280;69137;50.878;8.050;2023-07-31T10:59:48;97734.91;;;17.63;82.50
79671;BME280;69137;50.878;8.050;2023-07-31T11:02:34;97734.25;;;17.66;82.05
79671;BME280;69137;50.878;8.050;2023-07-31T11:07:50;97729.91;;;17.48;82.76
79671;BME280;69137;50.878;8.050;2023-07-31T11:10:18;97721.16;;;17.46;81.08
79671;BME280;69137;50.878;8.050;2023-07-31T11:12:52;97732.03;;;17.51;83.20
79671;BME280;69137;50.878;8.050;2023-07-31T11:15:39;97718.72;;;17.27;82.13
79671;BME280;69137;50.878;8.050;2023-07-31T11:18:05;97724.88;;;17.50;82.44
79671;BME280;69137;50.878;8.050;2023-07-31T11:20:34;97718.88;;;17.39;79.92
79671;BME280;69137;50.878;8.050;2023-07-31T11:23:06;97710.25;;;17.50;81.54
79671;BME280;69137;50.878;8.050;2023-07-31T11:25:32;97720.16;;;17.51;80.35
79671;BME280;69137;50.878;8.050;2023-07-31T11:28:08;97719.16;;;17.55;79.77
79671;BME280;69137;50.878;8.050;2023-07-31T11:30:35;97714.31;;;17.52;80.07
79671;BME280;69137;50.878;8.050;2023-07-31T11:33:02;97715.28;;;17.47;80.10
79671;BME280;69137;50.878;8.050;2023-07-31T11:35:36;97715.59;;;17.55;80.72
79671;BME280;69137;50.878;8.050;2023-07-31T11:38:21;97711.34;;;17.66;79.07
79671;BME280;69137;50.878;8.050;2023-07-31T11:40:48;97710.84;;;17.64;79.05
79671;BME280;69137;50.878;8.050;2023-07-31T11:43:14;97712.63;;;17.68;79.40
79671;BME280;69137;50.878;8.050;2023-07-31T11:49:03;97707.09;;;17.86;78.21
79671;BME280;69137;50.878;8.050;2023-07-31T11:51:46;97709.53;;;17.87;77.19
79671;BME280;69137;50.878;8.050;2023-07-31T11:54:36;97708.72;;;17.87;78.94
79671;BME280;69137;50.878;8.050;2023-07-31T11:57:02;97705.22;;;18.07;76.53
79671;BME280;69137;50.878;8.050;2023-07-31T11:59:28;97710.13;;;18.02;78.89
79671;BME280;69137;50.878;8.050;2023-07-31T12:01:57;97716.75;;;18.09;77.28
79671;BME280;69137;50.878;8.050;2023-07-31T12:04:23;97714.28;;;18.17;76.66
79671;BME280;69137;50.878;8.050;2023-07-31T12:10:31;97701.16;;;18.14;78.88
79671;BME280;69137;50.878;8.050;2023-07-31T12:13:23;97702.69;;;18.23;78.82
79671;BME280;69137;50.878;8.050;2023-07-31T12:15:57;97696.78;;;18.33;77.48
79671;BME280;69137;50.878;8.050;2023-07-31T12:18:24;97693.47;;;18.19;76.93
79671;BME280;69137;50.878;8.050;2023-07-31T12:24:12;97693.03;;;18.08;78.64
79671;BME280;69137;50.878;8.050;2023-07-31T12:30:38;97688.56;;;18.25;76.57
79671;BME280;69137;50.878;8.050;2023-07-31T12:36:25;97689.75;;;18.15;80.24
79671;BME280;69137;50.878;8.050;2023-07-31T12:38:52;97687.94;;;17.81;78.61
79671;BME280;69137;50.878;8.050;2023-07-31T12:41:18;97693.91;;;17.92;81.06
79671;BME280;69137;50.878;8.050;2023-07-31T12:43:45;97695.41;;;17.80;81.79
79671;BME280;69137;50.878;8.050;2023-07-31T12:46:11;97681.59;;;17.80;82.36
79671;BME280;69137;50.878;8.050;2023-07-31T12:51:46;97687.03;;;17.98;83.92
79671;BME280;69137;50.878;8.050;2023-07-31T12:57:49;97696.75;;;17.57;84.58
79671;BME280;69137;50.878;8.050;2023-07-31T13:00:15;97694.53;;;17.41;84.35
79671;BME280;69137;50.878;8.050;2023-07-31T13:02:47;97691.59;;;17.29;84.29
79671;BME280;69137;50.878;8.050;2023-07-31T13:05:12;97686.88;;;17.30;85.17
79671;BME280;69137;50.878;8.050;2023-07-31T13:07:39;97682.81;;;17.44;84.64
79671;BME280;69137;50.878;8.050;2023-07-31T13:10:05;97680.34;;;17.60;84.82
79671;BME280;69137;50.878;8.050;2023-07-31T13:12:31;97677.59;;;17.52;86.13
79671;BME280;69137;50.878;8.050;2023-07-31T13:14:56;97676.09;;;17.63;86.38
79671;BME280;69137;50.878;8.050;2023-07-31T13:17:22;97679.31;;;17.74;84.74
79671;BME280;69137;50.878;8.050;2023-07-31T13:23:09;97663.22;;;17.84;83.73
79671;BME280;69137;50.878;8.050;2023-07-31T13:25:35;97667.75;;;17.89;85.42
79671;BME280;69137;50.878;8.050;2023-07-31T13:28:01;97671.31;;;17.98;83.03
79671;BME280;69137;50.878;8.050;2023-07-31T13:30:48;97651.13;;;17.98;84.19
79671;BME280;69137;50.878;8.050;2023-07-31T13:33:16;97640.13;;;17.89;84.27
79671;BME280;69137;50.878;8.050;2023-07-31T13:35:42;97638.47;;;17.97;83.75
79671;BME280;69137;50.878;8.050;2023-07-31T13:38:22;97631.13;;;18.01;82.38
79671;BME280;69137;50.878;8.050;2023-07-31T13:43:59;97632.78;;;17.93;83.36
79671;BME280;69137;50.878;8.050;2023-07-31T13:46:30;97626.53;;;18.05;82.12
79671;BME280;69137;50.878;8.050;2023-07-31T13:48:57;97630.84;;;17.94;83.36
79671;BME280;69137;50.878;8.050;2023-07-31T13:51:25;97625.25;;;18.02;82.61
79671;BME280;69137;50.878;8.050;2023-07-31T13:57:13;97622.31;;;18.07;82.49
79671;BME280;69137;50.878;8.050;2023-07-31T13:59:39;97624.75;;;18.09;82.84
79671;BME280;69137;50.878;8.050;2023-07-31T14:02:04;97623.31;;;18.03;85.02
79671;BME280;69137;50.878;8.050;2023-07-31T14:05:02;97618.06;;;18.10;83.05
79671;BME280;69137;50.878;8.050;2023-07-31T14:07:28;97611.59;;;18.06;83.71
79671;BME280;69137;50.878;8.050;2023-07-31T14:09:53;97610.16;;;18.00;83.38
79671;BME280;69137;50.878;8.050;2023-07-31T14:12:19;97609.03;;;18.01;84.70
79671;BME280;69137;50.878;8.050;2023-07-31T14:14:44;97595.22;;;18.01;83.42
79671;BME280;69137;50.878;8.050;2023-07-31T14:17:09;97598.16;;;17.96;84.03
79671;BME280;69137;50.878;8.050;2023-07-31T14:19:35;97584.25;;;17.83;84.55
79671;BME280;69137;50.878;8.050;2023-07-31T14:22:00;97576.72;;;17.93;83.76
79671;BME280;69137;50.878;8.050;2023-07-31T14:24:26;97574.09;;;17.96;85.09
79671;BME280;69137;50.878;8.050;2023-07-31T14:26:51;97578.16;;;17.99;83.88
79671;BME280;69137;50.878;8.050;2023-07-31T14:29:16;97566.50;;;18.14;82.58
79671;BME280;69137;50.878;8.050;2023-07-31T14:31:42;97567.53;;;18.30;82.05